sensor_id;sensor_type;location;lat;lon;timestamp;P1;durP1;ratioP1;P2;durP2;ratioP2
35990;SDS011;22064;42.672;23.282;2023-01-09T00:01:29;67.65;;;30.95;;
35990;SDS011;22064;42.672;23.282;2023-01-09T00:04:17;63.47;;;31.10;;
35990;SDS011;22064;42.672;23.282;2023-01-09T00:07:01;64.78;;;30.58;;
35990;SDS011;22064;42.672;23.282;2023-01-09T00:09:45;68.80;;;30.90;;
35990;SDS011;22064;42.672;23.282;2023-01-09T00:12:29;60.20;;;28.17;;
35990;SDS011;22064;42.672;23.282;2023-01-09T00:15:13;54.83;;;27.40;;
35990;SDS011;22064;42.672;23.282;2023-01-09T00:17:57;54.63;;;27.10;;
35990;SDS011;22064;42.672;23.282;2023-01-09T00:20:41;53.78;;;25.42;;
35990;SDS011;22064;42.672;23.282;2023-01-09T00:23:25;53.38;;;25.27;;
35990;SDS011;22064;42.672;23.282;2023-01-09T00:26:10;52.28;;;25.58;;
35990;SDS011;22064;42.672;23.282;2023-01-09T00:28:56;49.35;;;24.83;;
35990;SDS011;22064;42.672;23.282;2023-01-09T00:31:41;58.70;;;27.67;;
35990;SDS011;22064;42.672;23.282;2023-01-09T00:34:25;57.08;;;28.00;;
35990;SDS011;22064;42.672;23.282;2023-01-09T00:37:10;54.45;;;25.13;;
35990;SDS011;22064;42.672;23.282;2023-01-09T00:39:56;48.95;;;23.25;;
35990;SDS011;22064;42.672;23.282;2023-01-09T00:42:42;54.65;;;23.73;;
35990;SDS011;22064;42.672;23.282;2023-01-09T00:45:28;51.72;;;25.25;;
35990;SDS011;22064;42.672;23.282;2023-01-09T00:48:16;55.58;;;25.38;;
35990;SDS011;22064;42.672;23.282;2023-01-09T00:51:09;51.75;;;23.77;;
35990;SDS011;22064;42.672;23.282;2023-01-09T00:53:53;55.35;;;26.60;;
35990;SDS011;22064;42.672;23.282;2023-01-09T00:56:37;56.58;;;25.50;;
35990;SDS011;22064;42.672;23.282;2023-01-09T00:59:22;53.83;;;23.65;;
35990;SDS011;22064;42.672;23.282;2023-01-09T01:02:07;51.97;;;23.38;;
35990;SDS011;22064;42.672;23.282;2023-01-09T01:04:51;48.80;;;22.38;;
35990;SDS011;22064;42.672;23.282;2023-01-09T01:07:54;49.17;;;23.10;;
35990;SDS011;22064;42.672;23.282;2023-01-09T01:10:38;49.88;;;22.50;;
35990;SDS011;22064;42.672;23.282;2023-01-09T01:13:22;46.95;;;22.55;;
35990;SDS011;22064;42.672;23.282;2023-01-09T01:39:48;45.88;;;21.42;;
35990;SDS011;22064;42.672;23.282;2023-01-09T01:42:32;54.08;;;23.75;;
35990;SDS011;22064;42.672;23.282;2023-01-09T01:45:19;49.53;;;23.73;;
35990;SDS011;22064;42.672;23.282;2023-01-09T01:48:06;52.20;;;23.27;;
35990;SDS011;22064;42.672;23.282;2023-01-09T01:51:04;51.22;;;22.55;;
35990;SDS011;22064;42.672;23.282;2023-01-09T01:53:51;50.78;;;24.02;;
35990;SDS011;22064;42.672;23.282;2023-01-09T01:56:44;48.83;;;23.13;;
35990;SDS011;22064;42.672;23.282;2023-01-09T01:59:37;49.75;;;23.35;;
35990;SDS011;22064;42.672;23.282;2023-01-09T02:02:28;50.78;;;24.25;;
35990;SDS011;22064;42.672;23.282;2023-01-09T02:05:14;53.75;;;24.92;;
35990;SDS011;22064;42.672;23.282;2023-01-09T02:07:59;54.33;;;25.63;;
35990;SDS011;22064;42.672;23.282;2023-01-09T02:10:43;54.05;;;25.90;;
35990;SDS011;22064;42.672;23.282;2023-01-09T02:13:27;54.28;;;25.83;;
35990;SDS011;22064;42.672;23.282;2023-01-09T02:22:42;55.53;;;26.75;;
35990;SDS011;22064;42.672;23.282;2023-01-09T02:35:22;52.17;;;24.77;;
35990;SDS011;22064;42.672;23.282;2023-01-09T02:41:57;49.35;;;24.73;;
35990;SDS011;22064;42.672;23.282;2023-01-09T02:44:46;53.42;;;23.70;;
35990;SDS011;22064;42.672;23.282;2023-01-09T02:47:35;47.55;;;23.42;;
35990;SDS011;22064;42.672;23.282;2023-01-09T02:50:33;48.03;;;23.20;;
35990;SDS011;22064;42.672;23.282;2023-01-09T03:00:10;52.50;;;24.50;;
35990;SDS011;22064;42.672;23.282;2023-01-09T03:06:29;50.38;;;24.25;;
35990;SDS011;22064;42.672;23.282;2023-01-09T03:09:16;48.80;;;22.90;;
35990;SDS011;22064;42.672;23.282;2023-01-09T03:12:23;52.65;;;22.65;;
35990;SDS011;22064;42.672;23.282;2023-01-09T03:15:11;49.88;;;23.10;;
35990;SDS011;22064;42.672;23.282;2023-01-09T03:17:58;49.72;;;23.02;;
35990;SDS011;22064;42.672;23.282;2023-01-09T03:20:43;52.72;;;23.55;;
35990;SDS011;22064;42.672;23.282;2023-01-09T03:33:07;52.25;;;24.20;;
35990;SDS011;22064;42.672;23.282;2023-01-09T03:35:51;51.80;;;23.65;;
35990;SDS011;22064;42.672;23.282;2023-01-09T03:38:35;50.20;;;22.65;;
35990;SDS011;22064;42.672;23.282;2023-01-09T03:41:19;46.47;;;23.65;;
35990;SDS011;22064;42.672;23.282;2023-01-09T03:44:03;48.97;;;23.52;;
35990;SDS011;22064;42.672;23.282;2023-01-09T03:46:47;51.45;;;23.75;;
35990;SDS011;22064;42.672;23.282;2023-01-09T03:49:33;47.25;;;23.52;;
35990;SDS011;22064;42.672;23.282;2023-01-09T03:52:17;47.72;;;23.67;;
35990;SDS011;22064;42.672;23.282;2023-01-09T03:55:01;58.80;;;24.80;;
35990;SDS011;22064;42.672;23.282;2023-01-09T03:57:46;47.92;;;22.77;;
35990;SDS011;22064;42.672;23.282;2023-01-09T04:00:30;41.60;;;20.83;;
35990;SDS011;22064;42.672;23.282;2023-01-09T04:03:14;49.90;;;22.63;;
35990;SDS011;22064;42.672;23.282;2023-01-09T04:05:59;46.95;;;23.05;;
35990;SDS011;22064;42.672;23.282;2023-01-09T04:08:43;45.67;;;21.25;;
35990;SDS011;22064;42.672;23.282;2023-01-09T04:11:29;49.25;;;23.30;;
35990;SDS011;22064;42.672;23.282;2023-01-09T04:14:13;48.72;;;22.08;;
35990;SDS011;22064;42.672;23.282;2023-01-09T04:16:57;52.30;;;23.50;;
35990;SDS011;22064;42.672;23.282;2023-01-09T04:19:42;47.35;;;23.50;;
35990;SDS011;22064;42.672;23.282;2023-01-09T04:22:26;48.50;;;22.65;;
35990;SDS011;22064;42.672;23.282;2023-01-09T04:25:10;49.60;;;24.00;;
35990;SDS011;22064;42.672;23.282;2023-01-09T04:27:54;48.97;;;23.40;;
35990;SDS011;22064;42.672;23.282;2023-01-09T04:30:39;46.35;;;23.50;;
35990;SDS011;22064;42.672;23.282;2023-01-09T04:33:23;52.15;;;24.08;;
35990;SDS011;22064;42.672;23.282;2023-01-09T04:36:07;48.50;;;24.33;;
35990;SDS011;22064;42.672;23.282;2023-01-09T04:38:52;52.47;;;24.15;;
35990;SDS011;22064;42.672;23.282;2023-01-09T04:41:36;45.00;;;22.90;;
35990;SDS011;22064;42.672;23.282;2023-01-09T04:44:32;46.13;;;23.17;;
35990;SDS011;22064;42.672;23.282;2023-01-09T04:47:16;46.78;;;22.42;;
35990;SDS011;22064;42.672;23.282;2023-01-09T04:50:01;49.65;;;23.70;;
35990;SDS011;22064;42.672;23.282;2023-01-09T04:52:45;47.28;;;22.67;;
35990;SDS011;22064;42.672;23.282;2023-01-09T04:55:29;46.40;;;22.63;;
35990;SDS011;22064;42.672;23.282;2023-01-09T04:58:13;48.38;;;23.00;;
35990;SDS011;22064;42.672;23.282;2023-01-09T05:00:58;46.85;;;22.83;;
35990;SDS011;22064;42.672;23.282;2023-01-09T05:03:42;45.15;;;22.98;;
35990;SDS011;22064;42.672;23.282;2023-01-09T05:06:27;47.88;;;23.25;;
35990;SDS011;22064;42.672;23.282;2023-01-09T05:09:11;45.88;;;21.70;;
35990;SDS011;22064;42.672;23.282;2023-01-09T05:11:55;51.00;;;23.45;;
35990;SDS011;22064;42.672;23.282;2023-01-09T05:14:40;49.72;;;22.90;;
35990;SDS011;22064;42.672;23.282;2023-01-09T05:17:24;51.90;;;24.08;;
35990;SDS011;22064;42.672;23.282;2023-01-09T05:20:08;50.70;;;24.05;;
35990;SDS011;22064;42.672;23.282;2023-01-09T05:22:53;51.03;;;24.40;;
35990;SDS011;22064;42.672;23.282;2023-01-09T05:25:37;55.67;;;25.90;;
35990;SDS011;22064;42.672;23.282;2023-01-09T05:28:21;51.47;;;25.27;;
35990;SDS011;22064;42.672;23.282;2023-01-09T05:31:05;55.22;;;26.83;;
35990;SDS011;22064;42.672;23.282;2023-01-09T05:33:49;56.45;;;27.17;;
35990;SDS011;22064;42.672;23.282;2023-01-09T05:36:33;54.95;;;27.80;;
35990;SDS011;22064;42.672;23.282;2023-01-09T05:39:18;56.10;;;27.17;;
35990;SDS011;22064;42.672;23.282;2023-01-09T05:42:02;57.33;;;27.38;;
35990;SDS011;22064;42.672;23.282;2023-01-09T05:44:46;57.05;;;27.60;;
35990;SDS011;22064;42.672;23.282;2023-01-09T05:47:30;67.25;;;33.50;;
35990;SDS011;22064;42.672;23.282;2023-01-09T05:50:15;78.75;;;38.50;;
35990;SDS011;22064;42.672;23.282;2023-01-09T05:52:59;87.32;;;42.13;;
35990;SDS011;22064;42.672;23.282;2023-01-09T05:55:43;76.80;;;37.53;;
35990;SDS011;22064;42.672;23.282;2023-01-09T05:58:28;87.82;;;41.03;;
35990;SDS011;22064;42.672;23.282;2023-01-09T06:01:12;79.57;;;37.40;;
35990;SDS011;22064;42.672;23.282;2023-01-09T06:03:56;87.38;;;41.40;;
35990;SDS011;22064;42.672;23.282;2023-01-09T06:06:40;87.57;;;43.47;;
35990;SDS011;22064;42.672;23.282;2023-01-09T06:09:24;91.80;;;44.72;;
35990;SDS011;22064;42.672;23.282;2023-01-09T06:12:09;78.85;;;40.50;;
35990;SDS011;22064;42.672;23.282;2023-01-09T06:14:53;81.95;;;40.35;;
35990;SDS011;22064;42.672;23.282;2023-01-09T06:17:38;79.47;;;40.45;;
35990;SDS011;22064;42.672;23.282;2023-01-09T06:20:22;77.22;;;37.90;;
35990;SDS011;22064;42.672;23.282;2023-01-09T06:23:06;75.50;;;36.40;;
35990;SDS011;22064;42.672;23.282;2023-01-09T06:25:50;71.50;;;34.83;;
35990;SDS011;22064;42.672;23.282;2023-01-09T06:28:34;65.38;;;33.20;;
35990;SDS011;22064;42.672;23.282;2023-01-09T06:31:19;65.57;;;32.90;;
35990;SDS011;22064;42.672;23.282;2023-01-09T06:34:03;74.20;;;33.78;;
35990;SDS011;22064;42.672;23.282;2023-01-09T06:36:47;60.92;;;30.23;;
35990;SDS011;22064;42.672;23.282;2023-01-09T06:39:31;63.88;;;32.25;;
35990;SDS011;22064;42.672;23.282;2023-01-09T06:42:16;58.90;;;31.17;;
35990;SDS011;22064;42.672;23.282;2023-01-09T06:45:00;60.20;;;30.52;;
35990;SDS011;22064;42.672;23.282;2023-01-09T06:47:44;68.95;;;34.63;;
35990;SDS011;22064;42.672;23.282;2023-01-09T06:50:28;64.40;;;32.85;;
35990;SDS011;22064;42.672;23.282;2023-01-09T06:53:12;74.57;;;36.97;;
35990;SDS011;22064;42.672;23.282;2023-01-09T06:55:56;76.63;;;40.65;;
35990;SDS011;22064;42.672;23.282;2023-01-09T06:58:40;86.90;;;42.70;;
35990;SDS011;22064;42.672;23.282;2023-01-09T07:01:24;83.63;;;41.47;;
35990;SDS011;22064;42.672;23.282;2023-01-09T07:04:09;81.15;;;42.10;;
35990;SDS011;22064;42.672;23.282;2023-01-09T07:06:53;77.72;;;39.88;;
35990;SDS011;22064;42.672;23.282;2023-01-09T07:09:38;74.70;;;39.42;;
35990;SDS011;22064;42.672;23.282;2023-01-09T07:12:22;76.60;;;39.83;;
35990;SDS011;22064;42.672;23.282;2023-01-09T07:15:06;72.78;;;35.50;;
35990;SDS011;22064;42.672;23.282;2023-01-09T07:17:51;66.20;;;34.45;;
35990;SDS011;22064;42.672;23.282;2023-01-09T07:20:37;68.47;;;35.22;;
35990;SDS011;22064;42.672;23.282;2023-01-09T07:23:23;72.72;;;37.22;;
35990;SDS011;22064;42.672;23.282;2023-01-09T07:26:07;67.38;;;36.33;;
35990;SDS011;22064;42.672;23.282;2023-01-09T07:28:52;71.78;;;35.53;;
35990;SDS011;22064;42.672;23.282;2023-01-09T07:31:37;69.90;;;37.30;;
35990;SDS011;22064;42.672;23.282;2023-01-09T07:34:21;65.60;;;32.47;;
35990;SDS011;22064;42.672;23.282;2023-01-09T07:37:05;65.22;;;35.40;;
35990;SDS011;22064;42.672;23.282;2023-01-09T07:39:49;60.75;;;28.58;;
35990;SDS011;22064;42.672;23.282;2023-01-09T07:42:34;60.50;;;28.38;;
35990;SDS011;22064;42.672;23.282;2023-01-09T07:45:18;55.03;;;24.48;;
35990;SDS011;22064;42.672;23.282;2023-01-09T07:48:03;46.80;;;24.40;;
35990;SDS011;22064;42.672;23.282;2023-01-09T07:50:47;50.25;;;25.08;;
35990;SDS011;22064;42.672;23.282;2023-01-09T07:53:32;49.13;;;23.23;;
35990;SDS011;22064;42.672;23.282;2023-01-09T07:56:16;48.05;;;24.13;;
35990;SDS011;22064;42.672;23.282;2023-01-09T07:59:00;52.97;;;24.55;;
35990;SDS011;22064;42.672;23.282;2023-01-09T08:01:45;56.17;;;27.17;;
35990;SDS011;22064;42.672;23.282;2023-01-09T08:04:29;62.22;;;32.15;;
35990;SDS011;22064;42.672;23.282;2023-01-09T08:07:13;64.97;;;36.28;;
35990;SDS011;22064;42.672;23.282;2023-01-09T08:09:57;71.28;;;38.08;;
35990;SDS011;22064;42.672;23.282;2023-01-09T08:12:41;75.25;;;41.05;;
35990;SDS011;22064;42.672;23.282;2023-01-09T08:15:26;83.28;;;44.85;;
35990;SDS011;22064;42.672;23.282;2023-01-09T08:18:10;84.38;;;47.03;;
35990;SDS011;22064;42.672;23.282;2023-01-09T08:20:54;89.25;;;50.85;;
35990;SDS011;22064;42.672;23.282;2023-01-09T08:23:38;96.82;;;55.40;;
35990;SDS011;22064;42.672;23.282;2023-01-09T08:26:22;93.95;;;56.10;;
35990;SDS011;22064;42.672;23.282;2023-01-09T08:29:07;103.43;;;58.55;;
35990;SDS011;22064;42.672;23.282;2023-01-09T08:31:50;106.30;;;62.20;;
35990;SDS011;22064;42.672;23.282;2023-01-09T08:34:35;117.35;;;60.92;;
35990;SDS011;22064;42.672;23.282;2023-01-09T08:37:19;103.90;;;60.25;;
35990;SDS011;22064;42.672;23.282;2023-01-09T08:40:03;111.70;;;61.65;;
35990;SDS011;22064;42.672;23.282;2023-01-09T08:42:48;109.60;;;60.22;;
35990;SDS011;22064;42.672;23.282;2023-01-09T08:45:51;110.30;;;60.97;;
35990;SDS011;22064;42.672;23.282;2023-01-09T08:48:54;111.00;;;61.50;;
35990;SDS011;22064;42.672;23.282;2023-01-09T08:51:38;109.57;;;60.38;;
35990;SDS011;22064;42.672;23.282;2023-01-09T08:54:22;105.45;;;58.38;;
35990;SDS011;22064;42.672;23.282;2023-01-09T08:57:07;109.05;;;58.03;;
35990;SDS011;22064;42.672;23.282;2023-01-09T08:59:51;107.93;;;59.65;;
35990;SDS011;22064;42.672;23.282;2023-01-09T09:02:35;103.80;;;59.17;;
35990;SDS011;22064;42.672;23.282;2023-01-09T09:05:20;109.35;;;60.83;;
35990;SDS011;22064;42.672;23.282;2023-01-09T09:08:05;112.03;;;60.65;;
35990;SDS011;22064;42.672;23.282;2023-01-09T09:10:49;118.63;;;66.40;;
35990;SDS011;22064;42.672;23.282;2023-01-09T09:13:34;111.28;;;64.32;;
35990;SDS011;22064;42.672;23.282;2023-01-09T09:16:18;113.60;;;62.25;;
35990;SDS011;22064;42.672;23.282;2023-01-09T09:19:02;95.00;;;51.33;;
35990;SDS011;22064;42.672;23.282;2023-01-09T09:21:46;87.72;;;45.53;;
35990;SDS011;22064;42.672;23.282;2023-01-09T09:24:30;80.78;;;41.95;;
35990;SDS011;22064;42.672;23.282;2023-01-09T09:27:14;85.70;;;47.08;;
35990;SDS011;22064;42.672;23.282;2023-01-09T09:29:58;79.68;;;44.78;;
35990;SDS011;22064;42.672;23.282;2023-01-09T09:32:43;76.53;;;40.50;;
35990;SDS011;22064;42.672;23.282;2023-01-09T09:35:28;70.90;;;38.90;;
35990;SDS011;22064;42.672;23.282;2023-01-09T09:38:13;70.38;;;37.53;;
35990;SDS011;22064;42.672;23.282;2023-01-09T09:56:59;47.17;;;23.38;;
35990;SDS011;22064;42.672;23.282;2023-01-09T09:59:46;45.38;;;22.38;;
35990;SDS011;22064;42.672;23.282;2023-01-09T10:02:44;44.00;;;22.10;;
35990;SDS011;22064;42.672;23.282;2023-01-09T10:05:38;46.70;;;21.92;;
35990;SDS011;22064;42.672;23.282;2023-01-09T10:11:26;43.47;;;22.42;;
35990;SDS011;22064;42.672;23.282;2023-01-09T10:14:18;53.17;;;27.13;;
35990;SDS011;22064;42.672;23.282;2023-01-09T10:17:16;48.95;;;26.98;;
35990;SDS011;22064;42.672;23.282;2023-01-09T10:26:24;50.60;;;25.13;;
35990;SDS011;22064;42.672;23.282;2023-01-09T10:29:22;49.42;;;25.75;;
35990;SDS011;22064;42.672;23.282;2023-01-09T10:38:27;41.10;;;21.27;;
35990;SDS011;22064;42.672;23.282;2023-01-09T10:44:24;37.47;;;19.25;;
35990;SDS011;22064;42.672;23.282;2023-01-09T10:47:27;40.80;;;19.90;;
35990;SDS011;22064;42.672;23.282;2023-01-09T10:50:19;41.10;;;21.08;;
35990;SDS011;22064;42.672;23.282;2023-01-09T10:53:14;40.05;;;19.83;;
35990;SDS011;22064;42.672;23.282;2023-01-09T10:56:14;39.75;;;20.70;;
35990;SDS011;22064;42.672;23.282;2023-01-09T10:59:04;40.60;;;21.25;;
35990;SDS011;22064;42.672;23.282;2023-01-09T11:01:51;40.33;;;20.55;;
35990;SDS011;22064;42.672;23.282;2023-01-09T11:04:36;39.58;;;21.20;;
35990;SDS011;22064;42.672;23.282;2023-01-09T11:07:24;43.30;;;21.63;;
35990;SDS011;22064;42.672;23.282;2023-01-09T11:10:14;39.90;;;21.30;;
35990;SDS011;22064;42.672;23.282;2023-01-09T11:13:16;38.80;;;20.25;;
35990;SDS011;22064;42.672;23.282;2023-01-09T11:16:05;34.40;;;17.50;;
35990;SDS011;22064;42.672;23.282;2023-01-09T11:18:57;34.30;;;17.73;;
35990;SDS011;22064;42.672;23.282;2023-01-09T11:21:43;37.92;;;18.42;;
35990;SDS011;22064;42.672;23.282;2023-01-09T11:24:28;35.08;;;16.92;;
35990;SDS011;22064;42.672;23.282;2023-01-09T11:27:18;32.50;;;17.50;;
35990;SDS011;22064;42.672;23.282;2023-01-09T11:30:20;36.45;;;17.52;;
35990;SDS011;22064;42.672;23.282;2023-01-09T11:33:13;37.13;;;17.27;;
35990;SDS011;22064;42.672;23.282;2023-01-09T11:36:04;37.65;;;18.17;;
35990;SDS011;22064;42.672;23.282;2023-01-09T11:38:54;35.08;;;16.98;;
35990;SDS011;22064;42.672;23.282;2023-01-09T11:41:40;33.60;;;16.65;;
35990;SDS011;22064;42.672;23.282;2023-01-09T11:44:25;35.47;;;16.70;;
35990;SDS011;22064;42.672;23.282;2023-01-09T11:47:33;32.63;;;16.67;;
35990;SDS011;22064;42.672;23.282;2023-01-09T11:50:23;33.47;;;15.77;;
35990;SDS011;22064;42.672;23.282;2023-01-09T11:53:16;34.13;;;16.00;;
35990;SDS011;22064;42.672;23.282;2023-01-09T11:56:02;30.58;;;15.88;;
35990;SDS011;22064;42.672;23.282;2023-01-09T11:58:47;32.25;;;15.13;;
35990;SDS011;22064;42.672;23.282;2023-01-09T12:04:54;34.88;;;16.05;;
35990;SDS011;22064;42.672;23.282;2023-01-09T12:11:27;34.63;;;16.25;;
35990;SDS011;22064;42.672;23.282;2023-01-09T12:25:20;34.78;;;17.25;;
35990;SDS011;22064;42.672;23.282;2023-01-09T12:33:49;33.80;;;15.93;;
35990;SDS011;22064;42.672;23.282;2023-01-09T12:46:23;35.08;;;16.58;;
35990;SDS011;22064;42.672;23.282;2023-01-09T12:49:23;38.83;;;18.25;;
35990;SDS011;22064;42.672;23.282;2023-01-09T12:57:56;36.22;;;16.85;;
35990;SDS011;22064;42.672;23.282;2023-01-09T13:00:46;35.50;;;17.27;;
35990;SDS011;22064;42.672;23.282;2023-01-09T13:03:44;35.60;;;17.13;;
35990;SDS011;22064;42.672;23.282;2023-01-09T13:06:34;33.70;;;16.38;;
35990;SDS011;22064;42.672;23.282;2023-01-09T13:09:28;35.83;;;17.90;;
35990;SDS011;22064;42.672;23.282;2023-01-09T13:12:21;38.73;;;17.03;;
35990;SDS011;22064;42.672;23.282;2023-01-09T13:18:29;33.80;;;16.08;;
35990;SDS011;22064;42.672;23.282;2023-01-09T13:21:25;31.83;;;15.70;;
35990;SDS011;22064;42.672;23.282;2023-01-09T13:27:10;34.25;;;15.48;;
35990;SDS011;22064;42.672;23.282;2023-01-09T13:30:05;33.70;;;16.25;;
35990;SDS011;22064;42.672;23.282;2023-01-09T13:36:05;33.22;;;17.15;;
35990;SDS011;22064;42.672;23.282;2023-01-09T13:38:49;35.42;;;16.25;;
35990;SDS011;22064;42.672;23.282;2023-01-09T13:41:33;35.45;;;15.85;;
35990;SDS011;22064;42.672;23.282;2023-01-09T13:44:49;31.17;;;14.98;;
35990;SDS011;22064;42.672;23.282;2023-01-09T13:47:37;34.33;;;16.45;;
35990;SDS011;22064;42.672;23.282;2023-01-09T13:50:22;39.90;;;16.40;;
35990;SDS011;22064;42.672;23.282;2023-01-09T13:56:03;32.33;;;16.10;;
35990;SDS011;22064;42.672;23.282;2023-01-09T14:01:43;33.75;;;15.93;;
35990;SDS011;22064;42.672;23.282;2023-01-09T14:04:40;34.40;;;16.95;;
35990;SDS011;22064;42.672;23.282;2023-01-09T14:07:31;35.30;;;17.20;;
35990;SDS011;22064;42.672;23.282;2023-01-09T14:13:07;34.88;;;17.42;;
35990;SDS011;22064;42.672;23.282;2023-01-09T14:18:47;34.97;;;16.40;;
35990;SDS011;22064;42.672;23.282;2023-01-09T14:21:43;37.38;;;18.00;;
35990;SDS011;22064;42.672;23.282;2023-01-09T14:24:31;37.83;;;17.85;;
35990;SDS011;22064;42.672;23.282;2023-01-09T14:30:38;39.35;;;17.73;;
35990;SDS011;22064;42.672;23.282;2023-01-09T14:33:41;40.05;;;18.40;;
35990;SDS011;22064;42.672;23.282;2023-01-09T14:36:30;42.13;;;18.67;;
35990;SDS011;22064;42.672;23.282;2023-01-09T14:39:18;34.33;;;17.05;;
35990;SDS011;22064;42.672;23.282;2023-01-09T14:42:05;35.35;;;16.90;;
35990;SDS011;22064;42.672;23.282;2023-01-09T14:48:13;37.30;;;16.15;;
35990;SDS011;22064;42.672;23.282;2023-01-09T14:50:59;41.28;;;18.05;;
35990;SDS011;22064;42.672;23.282;2023-01-09T14:53:43;34.28;;;15.80;;
35990;SDS011;22064;42.672;23.282;2023-01-09T14:56:29;37.17;;;16.48;;
35990;SDS011;22064;42.672;23.282;2023-01-09T14:59:14;35.33;;;16.25;;
35990;SDS011;22064;42.672;23.282;2023-01-09T15:01:59;36.60;;;16.75;;
35990;SDS011;22064;42.672;23.282;2023-01-09T15:04:43;36.95;;;16.15;;
35990;SDS011;22064;42.672;23.282;2023-01-09T15:07:28;35.53;;;16.63;;
35990;SDS011;22064;42.672;23.282;2023-01-09T15:10:21;37.20;;;16.07;;
35990;SDS011;22064;42.672;23.282;2023-01-09T15:16:19;36.90;;;15.55;;
35990;SDS011;22064;42.672;23.282;2023-01-09T15:19:06;33.25;;;16.73;;
35990;SDS011;22064;42.672;23.282;2023-01-09T15:21:55;35.40;;;15.25;;
35990;SDS011;22064;42.672;23.282;2023-01-09T15:24:47;38.50;;;15.88;;
35990;SDS011;22064;42.672;23.282;2023-01-09T15:27:32;36.03;;;16.50;;
35990;SDS011;22064;42.672;23.282;2023-01-09T15:30:20;37.97;;;16.10;;
35990;SDS011;22064;42.672;23.282;2023-01-09T15:33:13;35.67;;;16.60;;
35990;SDS011;22064;42.672;23.282;2023-01-09T15:36:01;39.65;;;16.65;;
35990;SDS011;22064;42.672;23.282;2023-01-09T15:38:50;36.70;;;16.08;;
35990;SDS011;22064;42.672;23.282;2023-01-09T15:41:35;36.70;;;16.80;;
35990;SDS011;22064;42.672;23.282;2023-01-09T15:44:39;36.88;;;17.17;;
35990;SDS011;22064;42.672;23.282;2023-01-09T15:47:30;38.67;;;18.13;;
35990;SDS011;22064;42.672;23.282;2023-01-09T15:50:15;42.23;;;18.87;;
35990;SDS011;22064;42.672;23.282;2023-01-09T15:53:03;37.17;;;17.42;;
35990;SDS011;22064;42.672;23.282;2023-01-09T15:58:51;38.38;;;17.58;;
35990;SDS011;22064;42.672;23.282;2023-01-09T16:01:37;42.78;;;18.15;;
35990;SDS011;22064;42.672;23.282;2023-01-09T16:04:23;40.78;;;18.65;;
35990;SDS011;22064;42.672;23.282;2023-01-09T16:07:12;46.33;;;24.30;;
35990;SDS011;22064;42.672;23.282;2023-01-09T16:09:58;40.97;;;19.17;;
35990;SDS011;22064;42.672;23.282;2023-01-09T16:12:42;42.10;;;19.10;;
35990;SDS011;22064;42.672;23.282;2023-01-09T16:15:27;62.80;;;26.75;;
35990;SDS011;22064;42.672;23.282;2023-01-09T16:18:20;43.70;;;19.95;;
35990;SDS011;22064;42.672;23.282;2023-01-09T16:21:20;44.28;;;19.15;;
35990;SDS011;22064;42.672;23.282;2023-01-09T16:26:51;46.33;;;20.70;;
35990;SDS011;22064;42.672;23.282;2023-01-09T16:29:57;49.13;;;20.52;;
35990;SDS011;22064;42.672;23.282;2023-01-09T16:32:51;45.15;;;20.98;;
35990;SDS011;22064;42.672;23.282;2023-01-09T16:35:35;44.90;;;19.38;;
35990;SDS011;22064;42.672;23.282;2023-01-09T16:38:20;48.70;;;20.73;;
35990;SDS011;22064;42.672;23.282;2023-01-09T16:41:18;45.63;;;20.33;;
35990;SDS011;22064;42.672;23.282;2023-01-09T16:44:23;48.95;;;22.13;;
35990;SDS011;22064;42.672;23.282;2023-01-09T16:47:09;50.67;;;22.10;;
35990;SDS011;22064;42.672;23.282;2023-01-09T16:49:54;45.55;;;20.63;;
35990;SDS011;22064;42.672;23.282;2023-01-09T16:52:38;46.17;;;21.80;;
35990;SDS011;22064;42.672;23.282;2023-01-09T16:55:23;51.35;;;22.48;;
35990;SDS011;22064;42.672;23.282;2023-01-09T16:58:10;47.42;;;21.05;;
35990;SDS011;22064;42.672;23.282;2023-01-09T17:00:57;42.38;;;19.98;;
35990;SDS011;22064;42.672;23.282;2023-01-09T17:03:41;49.17;;;21.90;;
35990;SDS011;22064;42.672;23.282;2023-01-09T17:06:27;42.40;;;18.98;;
35990;SDS011;22064;42.672;23.282;2023-01-09T17:09:14;51.08;;;22.13;;
35990;SDS011;22064;42.672;23.282;2023-01-09T17:12:00;43.55;;;20.75;;
35990;SDS011;22064;42.672;23.282;2023-01-09T17:14:45;44.13;;;22.02;;
35990;SDS011;22064;42.672;23.282;2023-01-09T17:17:30;50.13;;;21.30;;
35990;SDS011;22064;42.672;23.282;2023-01-09T17:20:17;46.45;;;21.25;;
35990;SDS011;22064;42.672;23.282;2023-01-09T17:23:02;43.13;;;20.65;;
35990;SDS011;22064;42.672;23.282;2023-01-09T17:25:51;47.85;;;21.20;;
35990;SDS011;22064;42.672;23.282;2023-01-09T17:28:58;48.33;;;21.73;;
35990;SDS011;22064;42.672;23.282;2023-01-09T17:31:42;50.35;;;22.83;;
35990;SDS011;22064;42.672;23.282;2023-01-09T17:34:26;52.85;;;22.02;;
35990;SDS011;22064;42.672;23.282;2023-01-09T17:37:14;49.95;;;21.33;;
35990;SDS011;22064;42.672;23.282;2023-01-09T17:39:59;48.00;;;21.55;;
35990;SDS011;22064;42.672;23.282;2023-01-09T17:42:46;48.80;;;22.27;;
35990;SDS011;22064;42.672;23.282;2023-01-09T17:45:30;49.03;;;22.65;;
35990;SDS011;22064;42.672;23.282;2023-01-09T17:48:19;50.05;;;21.42;;
35990;SDS011;22064;42.672;23.282;2023-01-09T17:51:04;48.33;;;21.02;;
35990;SDS011;22064;42.672;23.282;2023-01-09T17:53:49;48.22;;;22.55;;
35990;SDS011;22064;42.672;23.282;2023-01-09T17:56:33;51.83;;;22.60;;
35990;SDS011;22064;42.672;23.282;2023-01-09T17:59:20;49.13;;;21.95;;
35990;SDS011;22064;42.672;23.282;2023-01-09T18:02:04;46.97;;;22.30;;
35990;SDS011;22064;42.672;23.282;2023-01-09T18:04:50;49.35;;;22.08;;
35990;SDS011;22064;42.672;23.282;2023-01-09T18:07:34;46.92;;;21.23;;
35990;SDS011;22064;42.672;23.282;2023-01-09T18:10:19;47.22;;;21.92;;
35990;SDS011;22064;42.672;23.282;2023-01-09T18:13:10;47.05;;;21.40;;
35990;SDS011;22064;42.672;23.282;2023-01-09T18:15:54;50.33;;;22.48;;
35990;SDS011;22064;42.672;23.282;2023-01-09T18:18:38;47.55;;;21.98;;
35990;SDS011;22064;42.672;23.282;2023-01-09T18:21:24;52.08;;;21.92;;
35990;SDS011;22064;42.672;23.282;2023-01-09T18:24:09;47.15;;;21.67;;
35990;SDS011;22064;42.672;23.282;2023-01-09T18:26:53;48.20;;;20.90;;
35990;SDS011;22064;42.672;23.282;2023-01-09T18:29:37;47.95;;;21.05;;
35990;SDS011;22064;42.672;23.282;2023-01-09T18:32:22;49.97;;;23.05;;
35990;SDS011;22064;42.672;23.282;2023-01-09T18:35:07;49.30;;;22.17;;
35990;SDS011;22064;42.672;23.282;2023-01-09T18:37:52;49.70;;;22.13;;
35990;SDS011;22064;42.672;23.282;2023-01-09T18:40:37;57.25;;;26.42;;
35990;SDS011;22064;42.672;23.282;2023-01-09T18:43:21;68.07;;;33.83;;
35990;SDS011;22064;42.672;23.282;2023-01-09T18:46:06;55.47;;;26.23;;
35990;SDS011;22064;42.672;23.282;2023-01-09T18:48:51;55.25;;;24.15;;
35990;SDS011;22064;42.672;23.282;2023-01-09T18:51:36;52.80;;;23.25;;
35990;SDS011;22064;42.672;23.282;2023-01-09T18:54:20;49.45;;;20.95;;
35990;SDS011;22064;42.672;23.282;2023-01-09T18:57:05;47.38;;;21.15;;